Time;durP1;ratioP1;P1;durP2;ratioP2;P2;SDS_P1;SDS_P2;PMS_P1;PMS_P2;Temp;Humidity;BMP_temperature;BMP_pressure;BME280_temperature;BME280_humidity;BME280_pressure;Samples;Min_cycle;Max_cycle;Signal;HPM_P1;HPM_P2
2021/04/02 14:00:41;;;;;;;6.43;1.45;;;;;;;15.97;46.11;102557.09;5004388;28;96723;-48
2021/04/02 14:03:07;;;;;;;8.98;1.92;;;;;;;16.28;45.86;102555.00;4984635;28;96834;-54
2021/04/02 14:05:34;;;;;;;6.78;1.85;;;;;;;16.68;44.92;102551.22;4972816;28;127630;-54
2021/04/02 14:07:59;;;;;;;8.18;2.10;;;;;;;17.04;43.52;102557.91;4991820;28;110574;-54
2021/04/02 14:10:29;;;;;;;8.45;2.10;;;;;;;17.32;42.44;102558.25;4981704;28;98368;-61
2021/04/02 14:12:55;;;;;;;6.07;1.90;;;;;;;17.55;42.06;102566.41;4986144;28;96994;-60
2021/04/02 14:15:24;;;;;;;8.88;2.30;;;;;;;17.90;40.57;102560.66;4985233;28;97509;-56
2021/04/02 14:17:50;;;;;;;5.97;1.75;;;;;;;18.28;40.80;102549.53;4961619;28;108845;-57
2021/04/02 14:20:18;;;;;;;8.43;1.88;;;;;;;18.53;40.69;102552.34;4982286;28;97138;-56
2021/04/02 14:22:44;;;;;;;6.90;1.67;;;;;;;18.69;40.34;102545.41;4991887;28;102961;-56
2021/04/02 14:25:10;;;;;;;14.05;3.03;;;;;;;18.83;40.47;102555.22;4973528;28;97828;-56
2021/04/02 14:27:36;;;;;;;6.45;1.80;;;;;;;18.96;40.02;102565.84;4974659;28;103293;-56
2021/04/02 14:30:03;;;;;;;4.25;1.60;;;;;;;19.07;39.88;102553.56;4987230;28;98368;-56
2021/04/02 14:32:29;;;;;;;5.28;1.40;;;;;;;19.17;39.56;102552.72;4991508;28;103580;-56
2021/04/02 14:34:54;;;;;;;7.32;1.80;;;;;;;19.27;39.51;102556.31;4990278;28;97525;-57
2021/04/02 14:37:20;;;;;;;7.10;2.20;;;;;;;19.35;39.40;102543.97;4987653;28;107505;-56
2021/04/02 14:39:45;;;;;;;6.15;1.67;;;;;;;19.45;39.36;102538.69;4989102;28;107039;-55
2021/04/02 14:42:11;;;;;;;7.68;2.00;;;;;;;19.51;38.95;102544.03;4990682;28;96898;-56
2021/04/02 14:44:36;;;;;;;7.55;1.67;;;;;;;19.59;38.94;102547.59;4990107;28;126115;-56
2021/04/02 14:47:02;;;;;;;7.47;1.80;;;;;;;19.64;38.75;102540.50;4971885;28;109434;-56
2021/04/02 14:49:27;;;;;;;4.22;1.42;;;;;;;19.70;38.56;102527.28;4992143;28;96699;-56
2021/04/02 14:51:53;;;;;;;4.95;1.63;;;;;;;19.74;38.59;102518.50;4989139;28;110073;-53
2021/04/02 14:54:18;;;;;;;6.25;1.90;;;;;;;19.80;38.43;102520.25;4973126;28;100600;-53
2021/04/02 14:56:44;;;;;;;4.72;1.63;;;;;;;19.84;38.43;102518.50;4987890;28;122118;-54
2021/04/02 14:59:09;;;;;;;3.70;1.50;;;;;;;19.88;38.27;102521.16;4990119;28;110269;-53
2021/04/02 15:01:35;;;;;;;5.25;1.55;;;;;;;19.90;38.36;102516.75;4988867;28;98052;-54
2021/04/02 15:04:00;;;;;;;3.58;1.38;;;;;;;19.94;38.32;102521.16;4980993;28;112503;-54
2021/04/02 15:06:26;;;;;;;4.53;1.48;;;;;;;19.97;38.21;102515.00;4992157;28;97144;-53
2021/04/02 15:08:51;;;;;;;4.32;1.48;;;;;;;20.00;38.07;102522.03;4991407;28;96917;-53
2021/04/02 15:11:17;;;;;;;3.03;1.67;;;;;;;20.02;38.14;102515.88;4982769;28;97174;-53
2021/04/02 15:13:42;;;;;;;3.25;1.60;;;;;;;20.05;37.61;102525.56;4974061;28;99244;-53
2021/04/02 15:16:08;;;;;;;3.95;1.25;;;;;;;20.06;37.86;102524.69;4971439;28;97342;-53
2021/04/02 15:18:33;;;;;;;4.20;1.42;;;;;;;20.08;37.67;102520.28;4966171;28;112386;-53
2021/04/02 15:20:59;;;;;;;6.18;1.50;;;;;;;20.09;37.71;102524.69;4975672;28;97066;-53
2021/04/02 15:23:24;;;;;;;4.70;1.48;;;;;;;20.11;37.79;102523.81;4977644;28;97646;-55
2021/04/02 15:25:50;;;;;;;4.10;1.55;;;;;;;20.12;37.49;102533.53;4977814;28;98450;-56
2021/04/02 15:30:44;;;;;;;2.85;1.23;;;;;;;20.14;37.63;102533.50;4974961;28;98692;-52
2021/04/02 15:33:10;;;;;;;2.55;1.15;;;;;;;20.15;37.65;102530.88;4974621;28;97455;-53
2021/04/02 15:35:35;;;;;;;4.47;1.42;;;;;;;20.15;37.53;102530.88;4956512;28;99551;-53
2021/04/02 15:38:01;;;;;;;3.40;1.40;;;;;;;20.16;37.72;102534.41;4969939;28;96733;-52
2021/04/02 15:40:28;;;;;;;3.05;1.40;;;;;;;20.16;37.42;102534.41;4966008;28;96768;-53
2021/04/02 15:42:53;;;;;;;3.42;1.50;;;;;;;20.16;37.36;102542.38;4970510;28;97528;-53
2021/04/02 15:45:19;;;;;;;3.45;1.70;;;;;;;20.17;37.65;102536.16;4962913;28;102993;-53
2021/04/02 15:47:44;;;;;;;3.35;1.48;;;;;;;20.19;37.27;102533.53;4979519;28;96738;-52
2021/04/02 15:50:12;;;;;;;4.22;1.73;;;;;;;20.19;37.55;102547.63;4972619;28;96826;-52
2021/04/02 15:52:38;;;;;;;3.42;1.40;;;;;;;20.20;37.51;102548.53;4956688;28;97791;-53
2021/04/02 15:55:07;;;;;;;3.33;1.85;;;;;;;20.21;37.24;102551.16;4970800;28;97308;-53
2021/04/02 15:57:32;;;;;;;5.07;1.50;;;;;;;20.22;37.40;102549.41;4977465;28;98450;-53
2021/04/02 15:59:57;;;;;;;3.92;1.20;;;;;;;20.23;37.44;102549.44;4961001;28;96876;-52
2021/04/02 16:02:23;;;;;;;2.78;1.23;;;;;;;20.23;37.44;102549.44;4976955;28;121631;-52
2021/04/02 16:04:48;;;;;;;3.50;1.40;;;;;;;20.24;37.45;102548.53;4974478;28;97926;-52
2021/04/02 16:07:14;;;;;;;3.13;1.50;;;;;;;20.24;37.22;102550.31;4966383;28;96693;-53
2021/04/02 16:09:40;;;;;;;2.60;1.42;;;;;;;20.24;37.14;102553.81;4975218;28;96847;-53
2021/04/02 16:12:10;;;;;;;3.00;1.58;;;;;;;20.26;37.31;102545.88;4966539;28;97583;-53
2021/04/02 16:14:35;;;;;;;3.22;1.20;;;;;;;20.26;37.22;102548.53;4976344;28;97485;-53
2021/04/02 16:17:01;;;;;;;3.58;1.20;;;;;;;20.26;37.07;102551.19;4963766;28;99411;-53
2021/04/02 16:19:27;;;;;;;3.35;1.40;;;;;;;20.27;37.08;102545.00;4946007;28;96992;-53
2021/04/02 16:21:52;;;;;;;3.25;1.20;;;;;;;20.26;37.34;102538.81;4964774;28;102859;-53
2021/04/02 16:24:17;;;;;;;2.78;1.20;;;;;;;20.27;37.11;102537.06;4964936;28;118884;-53
2021/04/02 16:26:43;;;;;;;3.63;1.30;;;;;;;20.28;37.49;102550.28;4973664;28;110519;-53
2021/04/02 16:29:08;;;;;;;3.25;1.35;;;;;;;20.27;37.23;102553.81;4957570;28;96739;-53
2021/04/02 16:31:34;;;;;;;2.83;1.10;;;;;;;20.28;37.03;102547.63;4964059;28;97604;-53
2021/04/02 16:33:59;;;;;;;2.92;1.33;;;;;;;20.28;37.29;102544.97;4972475;28;100926;-53
2021/04/02 16:36:25;;;;;;;2.22;1.42;;;;;;;20.29;37.29;102548.53;4965149;28;96837;-53
2021/04/02 16:38:50;;;;;;;3.15;1.30;;;;;;;20.29;37.13;102552.06;4955809;28;97060;-53
2021/04/02 16:41:16;;;;;;;1.67;1.33;;;;;;;20.30;37.26;102564.44;4956355;28;122730;-53
2021/04/02 16:43:41;;;;;;;2.88;1.40;;;;;;;20.30;37.01;102550.28;4963892;28;117379;-53
2021/04/02 16:46:07;;;;;;;3.20;1.27;;;;;;;20.31;37.22;102555.59;4957634;28;96718;-53
2021/04/02 16:48:32;;;;;;;2.10;1.30;;;;;;;20.30;37.28;102543.25;4963601;28;97133;-53
2021/04/02 16:50:58;;;;;;;3.38;1.30;;;;;;;20.32;37.06;102545.84;4964231;28;97380;-53
2021/04/02 16:53:23;;;;;;;1.95;1.10;;;;;;;20.31;37.26;102544.09;4960411;28;126686;-54
2021/04/02 16:55:49;;;;;;;2.58;1.20;;;;;;;20.30;37.26;102543.25;4960278;28;108114;-53
2021/04/02 16:58:14;;;;;;;2.45;1.10;;;;;;;20.31;37.17;102547.63;4961708;28;99785;-53
2021/04/02 17:00:40;;;;;;;2.05;1.20;;;;;;;20.31;36.93;102546.75;4970663;28;97436;-53
2021/04/02 17:03:05;;;;;;;3.03;1.25;;;;;;;20.31;37.14;102554.72;4957819;28;118230;-53
2021/04/02 17:05:30;;;;;;;3.05;1.33;;;;;;;20.30;36.94;102551.19;4970566;28;110435;-53
2021/04/02 17:07:56;;;;;;;2.17;1.20;;;;;;;20.31;37.15;102552.94;4969008;28;101633;-53
2021/04/02 17:10:21;;;;;;;2.22;1.40;;;;;;;20.31;37.21;102554.72;4965861;28;126709;-53
2021/04/02 17:12:47;;;;;;;3.95;1.40;;;;;;;20.31;37.25;102558.22;4955741;28;97221;-54
2021/04/02 17:15:13;;;;;;;2.15;1.45;;;;;;;20.31;37.04;102549.41;4961467;28;96717;-53
2021/04/02 17:17:38;;;;;;;2.53;1.30;;;;;;;20.30;37.30;102542.34;4960403;28;96948;-53
2021/04/02 17:20:09;;;;;;;1.92;1.10;;;;;;;20.30;36.97;102539.69;4972869;28;97499;-53
2021/04/02 17:22:35;;;;;;;1.90;1.02;;;;;;;20.31;36.98;102544.09;4975027;28;97238;-54
2021/04/02 17:25:00;;;;;;;1.90;1.63;;;;;;;20.31;37.18;102530.88;4972265;28;96648;-54
2021/04/02 17:27:26;;;;;;;1.92;1.25;;;;;;;20.31;37.06;102544.09;4964250;28;106426;-53
2021/04/02 17:29:51;;;;;;;2.35;1.40;;;;;;;20.31;37.22;102539.69;4976478;28;97560;-53
2021/04/02 17:32:17;;;;;;;2.35;1.42;;;;;;;20.31;36.94;102537.03;4974107;28;106502;-54
2021/04/02 17:34:42;;;;;;;4.65;1.23;;;;;;;20.32;36.79;102532.59;4966934;28;97032;-53
2021/04/02 17:37:08;;;;;;;1.98;1.17;;;;;;;20.32;36.89;102524.66;4966143;28;97306;-53
2021/04/02 17:39:33;;;;;;;3.55;1.30;;;;;;;20.32;37.01;102524.66;4960320;28;106073;-53
2021/04/02 17:41:59;;;;;;;2.05;1.20;;;;;;;20.32;36.81;102535.25;4959383;28;97304;-53
2021/04/02 17:44:24;;;;;;;2.70;1.15;;;;;;;20.32;36.97;102544.13;4972795;28;96967;-54
